Rio Vista, California
Current Conditions -  °F | °C
As of 6:58 AM on Friday 19 Dec 2014 (Local Time) from KSUU Reporting Station
Scattered Clouds Scattered Clouds  
Wind Chill: 51°   Ceiling: Unl
Heat Index: 51°   Visibility: 10mi
Dew Point: 48°   Wind: 7mph
Humidity: 89%   Direction: 160°SSE
Pressure: 30.09"   Gusts: NA
Location:  38.16°N, 121.69°W
Report Text: KSUU 191458Z AUTO 16006KT 10SM SCT029 11/09 A3009 RMK AO2 SLP196 60001 T01080091 57017 $
Loading
Personal Weather Stations






























Interactive Weather Map New forecast layout! Learn more

10-Day Weather Forecast

Advertisements
Track Severe Weather on mobile